This is the latest recevied weather packets stored in our database for station/object DL9LAF-4. If no packets are shown the sender has not sent any weather packets the latest 1 day(s).
| Time | Temp. | Humidity | Pressure | Rain* | Wind** | Luminosity | Snow |
|---|---|---|---|---|---|---|---|
| 1836274555 | 14.44° C | 89% | 990.5 hPa | 0 mm | 0 m/s | - | - |
| 1836274405 | 14.44° C | 89% | 990.5 hPa | 0 mm | 0 m/s | - | - |
| 1836273955 | 14.44° C | 89% | 990.7 hPa | 0 mm | 0 m/s | - | - |
| 1778030755 | 5° C | 81% | 987.4 hPa | 0 mm | 0 m/s | - | - |
| 1778030155 | 5.56° C | 81% | 987.4 hPa | 0 mm | 0 m/s | - | - |
| 1778029555 | 5.56° C | 81% | 987.4 hPa | 0 mm | 0 m/s | - | - |
| 1778028955 | 5.56° C | 81% | 987.4 hPa | 0 mm | 0 m/s | - | - |
| 1778028355 | 5.56° C | 80% | 987.5 hPa | 0 mm | 40.68 m/s, 337° | - | - |
| 1778027755 | 5.56° C | 80% | 987.4 hPa | 0 mm | 40.68 m/s, 337° | - | - |
| 1778027155 | 5.56° C | 79% | 987.4 hPa | 0 mm | 40.68 m/s, 337° | - | - |
| 1778026555 | 6.11° C | 79% | 987.2 hPa | 0 mm | 0 m/s | - | - |
| 1778025955 | 6.11° C | 79% | 987.4 hPa | 0 mm | 0 m/s | - | - |
| 1778025355 | 6.11° C | 78% | 987.5 hPa | 0 mm | 40.68 m/s, 337° | - | - |
| 1778024755 | 6.67° C | 78% | 987.7 hPa | 0 mm | 0 m/s | - | - |
| 1778024155 | 6.67° C | 78% | 987.7 hPa | 0 mm | 0 m/s | - | - |
| 1778023555 | 6.67° C | 78% | 987.7 hPa | 0 mm | 81.81 m/s, 270° | - | - |
| 1778022955 | 6.67° C | 78% | 987.7 hPa | 0 mm | 81.81 m/s, 270° | - | - |
| 1778022355 | 7.22° C | 77% | 987.7 hPa | 0 mm | 0 m/s | - | - |
| 1778021755 | 7.22° C | 77% | 987.7 hPa | 0 mm | 0 m/s | - | - |
| 1778021155 | 7.22° C | 77% | 987.7 hPa | 0 mm | 0 m/s | - | - |
| 1778020555 | 7.22° C | 77% | 987.7 hPa | 0 mm | 0 m/s | - | - |
| 1778019955 | 7.22° C | 76% | 987.7 hPa | 0 mm | 0 m/s | - | - |
| 1778019355 | 7.22° C | 76% | 987.7 hPa | 0 mm | 0 m/s | - | - |
| 1778018755 | 7.78° C | 76% | 987.7 hPa | 0 mm | 0 m/s | - | - |
| 1778018155 | 7.78° C | 76% | 987.7 hPa | 0 mm | 0 m/s | - | - |
* Rain latest hour (hover to see other rain measurements)
** Current wind speed in m/s (hover to see current wind gust speed)